createdAt,value
2022-11-27T00:02:29.464Z,47.15
2022-11-27T00:07:35.233Z,67.47
2022-11-27T00:12:40.948Z,54.95
2022-11-27T00:17:47.366Z,31.20
2022-11-27T00:22:53.953Z,34.08
2022-11-27T00:28:00.915Z,54.28
2022-11-27T00:33:06.988Z,40.88
2022-11-27T00:38:17.041Z,52.28
2022-11-27T00:43:23.958Z,27.00
2022-11-27T00:48:33.278Z,26.80
2022-11-27T00:53:54.119Z,32.33
2022-11-27T00:59:02.395Z,34.65
2022-11-27T01:04:08.470Z,30.90
2022-11-27T01:09:14.849Z,29.33
2022-11-27T01:14:24.362Z,30.17
2022-11-27T01:19:32.955Z,23.75
2022-11-27T01:24:39.122Z,28.77
2022-11-27T01:29:45.110Z,16.23
2022-11-27T01:34:52.975Z,29.02
2022-11-27T01:40:00.484Z,25.92
2022-11-27T01:50:16.892Z,19.98
2022-11-27T01:55:52.310Z,25.10
2022-11-27T02:00:58.611Z,24.73
2022-11-27T02:06:04.422Z,20.85
2022-11-27T02:11:24.884Z,12.50
2022-11-27T02:16:40.365Z,15.80
2022-11-27T02:22:03.086Z,16.23
2022-11-27T02:27:41.473Z,19.95
2022-11-27T02:32:51.790Z,19.52
2022-11-27T02:38:03.032Z,6.47
2022-11-27T02:43:12.319Z,16.88
2022-11-27T02:48:20.338Z,20.05
2022-11-27T02:53:32.459Z,21.60
2022-11-27T02:58:39.483Z,14.85
2022-11-27T03:03:46.984Z,10.80
2022-11-27T03:08:57.036Z,15.90
2022-11-27T03:14:15.815Z,23.33
2022-11-27T03:19:27.878Z,13.77
2022-11-27T03:24:43.750Z,10.70
2022-11-27T03:29:56.273Z,11.48
2022-11-27T03:35:03.750Z,20.92
2022-11-27T03:40:10.852Z,11.57
2022-11-27T03:45:25.361Z,15.50
2022-11-27T03:50:52.271Z,12.90
2022-11-27T03:56:10.793Z,21.63
2022-11-27T04:01:22.595Z,17.48
2022-11-27T04:06:29.198Z,19.23
2022-11-27T04:11:36.072Z,11.38
2022-11-27T04:16:43.331Z,12.68
2022-11-27T04:21:49.668Z,10.10
2022-11-27T04:26:56.549Z,15.68
2022-11-27T04:32:03.050Z,7.20
2022-11-27T04:37:09.344Z,13.10
2022-11-27T04:42:16.264Z,7.53
2022-11-27T04:47:22.931Z,11.05
2022-11-27T04:52:29.247Z,16.45
2022-11-27T04:57:35.563Z,8.60
2022-11-27T05:12:53.381Z,21.70
2022-11-27T05:18:00.146Z,15.55
2022-11-27T05:23:07.016Z,16.25
2022-11-27T05:28:13.815Z,19.35
2022-11-27T05:33:20.780Z,19.98
2022-11-27T05:38:27.699Z,13.52
2022-11-27T05:43:36.524Z,11.80
2022-11-27T05:48:45.723Z,15.32
2022-11-27T05:53:55.222Z,18.95
2022-11-27T05:59:01.700Z,17.60
2022-11-27T06:04:08.119Z,14.48
2022-11-27T06:09:15.042Z,18.95
2022-11-27T06:14:22.480Z,21.08
2022-11-27T06:19:28.879Z,21.63
2022-11-27T06:24:44.709Z,17.33
2022-11-27T06:34:56.640Z,16.60
2022-11-27T06:40:04.955Z,12.33
2022-11-27T06:45:15.501Z,10.68
2022-11-27T06:50:20.975Z,14.02
2022-11-27T06:55:26.393Z,12.87
2022-11-27T07:00:32.442Z,12.20
2022-11-27T07:10:43.491Z,11.90
2022-11-27T07:15:49.545Z,11.38
2022-11-27T07:26:07.439Z,12.23
2022-11-27T07:31:14.356Z,10.10
2022-11-27T07:36:21.242Z,14.88
2022-11-27T07:41:33.420Z,16.17
2022-11-27T07:46:39.627Z,12.43
2022-11-27T07:51:45.762Z,10.45
2022-11-27T07:56:51.811Z,13.88
2022-11-27T08:01:58.091Z,8.32
2022-11-27T08:07:04.144Z,8.63
2022-11-27T08:12:11.144Z,13.68
2022-11-27T08:17:16.653Z,16.85
2022-11-27T08:22:25.856Z,12.73
2022-11-27T08:27:34.355Z,10.75
2022-11-27T08:32:43.179Z,13.38
2022-11-27T08:37:52.628Z,17.08
2022-11-27T08:43:10.658Z,14.95
2022-11-27T08:48:18.911Z,14.90
2022-11-27T08:53:25.186Z,11.85
2022-11-27T08:58:30.908Z,18.27
2022-11-27T09:03:36.632Z,15.38
2022-11-27T09:08:44.631Z,11.68
2022-11-27T09:13:51.377Z,10.73
2022-11-27T09:18:57.563Z,9.13
2022-11-27T09:24:04.271Z,20.67
2022-11-27T09:29:10.276Z,11.48
2022-11-27T09:39:27.587Z,10.35
2022-11-27T09:44:54.821Z,13.05
2022-11-27T09:50:06.669Z,9.30
2022-11-27T09:55:16.857Z,9.35
2022-11-27T10:00:28.776Z,12.40
2022-11-27T10:05:46.928Z,10.82
2022-11-27T10:11:10.846Z,15.10
2022-11-27T10:16:16.711Z,16.13
2022-11-27T10:26:55.811Z,13.45
2022-11-27T10:32:03.942Z,13.77
2022-11-27T10:37:22.067Z,11.82
2022-11-27T10:42:36.135Z,7.32
2022-11-27T10:47:43.283Z,7.53
2022-11-27T10:52:55.622Z,9.55
2022-11-27T10:58:19.570Z,7.60
2022-11-27T11:03:25.679Z,12.52
2022-11-27T11:08:31.709Z,13.15
2022-11-27T11:18:52.533Z,9.48
2022-11-27T11:29:06.411Z,10.68
2022-11-27T11:34:31.892Z,11.48
2022-11-27T11:39:45.124Z,19.63
2022-11-27T11:45:13.508Z,12.15
2022-11-27T11:50:25.543Z,7.20
2022-11-27T11:55:57.596Z,15.52
2022-11-27T12:01:26.955Z,9.73
2022-11-27T12:06:37.851Z,10.07
2022-11-27T12:11:51.206Z,10.85
2022-11-27T12:17:20.973Z,10.27
2022-11-27T12:22:47.828Z,6.90
2022-11-27T12:28:04.970Z,10.68
2022-11-27T12:33:37.039Z,11.65
2022-11-27T12:38:43.548Z,11.07
2022-11-27T12:44:01.849Z,8.38
2022-11-27T12:49:26.621Z,12.88
2022-11-27T12:54:39.874Z,11.57
2022-11-27T13:00:16.265Z,8.55
2022-11-27T13:05:24.812Z,10.43
2022-11-27T13:10:41.011Z,9.43
2022-11-27T13:16:00.050Z,8.52
2022-11-27T13:21:11.155Z,6.68
2022-11-27T13:26:26.513Z,9.35
2022-11-27T13:31:40.649Z,14.85
2022-11-27T13:37:00.603Z,10.50
2022-11-27T13:42:34.227Z,9.55
2022-11-27T13:47:45.025Z,6.80
2022-11-27T13:53:01.684Z,11.32
2022-11-27T13:58:11.342Z,14.52
2022-11-27T14:03:29.069Z,10.52
2022-11-27T14:08:40.121Z,5.65
2022-11-27T14:13:51.583Z,12.48
2022-11-27T14:19:01.458Z,10.38
2022-11-27T14:24:28.110Z,8.48
2022-11-27T14:29:35.409Z,7.07
2022-11-27T14:34:43.110Z,10.27
2022-11-27T14:39:50.068Z,5.72
2022-11-27T14:45:17.740Z,10.52
2022-11-27T14:50:28.437Z,6.20
2022-11-27T14:55:34.936Z,3.97
2022-11-27T15:01:01.795Z,9.85
2022-11-27T15:06:10.245Z,4.25
2022-11-27T15:11:49.135Z,8.70
2022-11-27T15:16:56.375Z,12.57
2022-11-27T15:22:11.911Z,15.23
2022-11-27T15:27:22.486Z,11.85
2022-11-27T15:32:28.952Z,13.23
2022-11-27T15:37:37.770Z,21.83
2022-11-27T15:49:02.408Z,9.48
2022-11-27T15:54:08.890Z,10.25
2022-11-27T15:59:25.952Z,11.73
2022-11-27T16:04:41.063Z,12.00
2022-11-27T16:10:05.406Z,17.25
2022-11-27T16:15:47.452Z,11.63
2022-11-27T16:20:55.782Z,14.97
2022-11-27T16:26:04.974Z,10.23
2022-11-27T16:31:16.152Z,17.13
2022-11-27T16:36:26.490Z,12.45
2022-11-27T16:41:54.334Z,15.07
2022-11-27T16:47:33.331Z,20.60
2022-11-27T16:52:44.619Z,14.68
2022-11-27T16:57:51.890Z,14.90
2022-11-27T17:03:02.678Z,9.88
2022-11-27T17:08:14.903Z,9.70
2022-11-27T17:13:30.369Z,12.48
2022-11-27T17:18:57.830Z,11.10
2022-11-27T17:24:15.926Z,10.68
2022-11-27T17:29:24.210Z,16.48
2022-11-27T17:34:36.712Z,11.95
2022-11-27T17:39:50.604Z,15.07
2022-11-27T17:45:03.292Z,13.00
2022-11-27T17:50:21.489Z,13.20
2022-11-27T17:55:43.268Z,13.20
2022-11-27T18:00:58.698Z,16.10
2022-11-27T18:06:06.940Z,14.65
2022-11-27T18:11:15.088Z,19.60
2022-11-27T18:16:25.707Z,22.90
2022-11-27T18:21:32.602Z,13.93
2022-11-27T18:27:07.382Z,20.55
2022-11-27T18:32:03.725Z,16.80
2022-11-27T18:37:09.267Z,24.98
2022-11-27T18:42:15.350Z,21.65
2022-11-27T18:52:26.077Z,20.95
2022-11-27T18:57:32.300Z,27.38
2022-11-27T19:02:38.954Z,33.22
2022-11-27T19:07:44.570Z,25.80
2022-11-27T19:12:50.900Z,23.00
2022-11-27T19:17:56.499Z,36.38
2022-11-27T19:23:02.070Z,31.42
2022-11-27T19:28:09.597Z,30.73
2022-11-27T19:33:15.059Z,27.05
2022-11-27T19:38:20.851Z,26.37
2022-11-27T19:43:27.356Z,28.45
2022-11-27T19:48:32.510Z,20.03
2022-11-27T19:53:39.036Z,27.93
2022-11-27T19:58:44.831Z,16.52
2022-11-27T20:03:52.093Z,18.08
2022-11-27T20:09:02.823Z,21.92
2022-11-27T20:14:09.311Z,21.30
2022-11-27T20:19:15.697Z,26.75
2022-11-27T20:24:23.580Z,32.80
2022-11-27T20:29:29.022Z,21.75
2022-11-27T20:34:38.981Z,20.30
2022-11-27T20:39:46.204Z,21.98
2022-11-27T20:44:52.888Z,24.90
2022-11-27T20:49:58.485Z,15.00
2022-11-27T20:55:04.374Z,23.33
2022-11-27T21:00:11.095Z,25.02
2022-11-27T21:05:16.736Z,22.15
2022-11-27T21:10:25.293Z,26.20
2022-11-27T21:15:31.354Z,19.27
2022-11-27T21:20:36.549Z,18.63
2022-11-27T21:25:44.677Z,27.37
2022-11-27T21:30:50.512Z,22.45
2022-11-27T21:35:59.244Z,19.75
2022-11-27T21:41:05.445Z,27.98
2022-11-27T21:46:15.185Z,29.90
2022-11-27T21:51:22.747Z,23.60
2022-11-27T21:56:30.777Z,23.92
2022-11-27T22:01:36.830Z,32.78
2022-11-27T22:06:43.659Z,20.05
2022-11-27T22:11:50.012Z,33.17
2022-11-27T22:16:57.871Z,16.52
2022-11-27T22:22:03.983Z,36.50
2022-11-27T22:27:09.216Z,31.92
2022-11-27T22:32:14.818Z,22.88
2022-11-27T22:37:20.954Z,23.23
2022-11-27T22:42:26.828Z,31.45
2022-11-27T22:47:32.303Z,29.47
2022-11-27T22:52:38.232Z,35.55
2022-11-27T22:57:44.108Z,30.85
2022-11-27T23:02:50.873Z,29.02
2022-11-27T23:07:56.678Z,20.90
2022-11-27T23:13:03.567Z,24.42
2022-11-27T23:18:09.516Z,32.05
2022-11-27T23:23:36.462Z,33.53
2022-11-27T23:28:45.256Z,21.80
2022-11-27T23:33:51.826Z,32.88
2022-11-27T23:39:02.538Z,27.83
2022-11-27T23:44:08.988Z,32.72
2022-11-27T23:49:15.571Z,36.13
2022-11-27T23:54:21.397Z,31.13
